This is the latest recevied weather packets stored in our database for station/object LZ2SMX-2. If no packets are shown the sender has not sent any weather packets the latest 10 day(s).
| Time | Temp. | Humidity | Pressure | Rain* | Wind** | Luminosity | Snow |
|---|---|---|---|---|---|---|---|
| 1777729991 | 10° C | 61% | 994 hPa | 0 mm | - | - | - |
| 1777728790 | 11.67° C | 58% | 994 hPa | 0 mm | - | - | - |
| 1777727591 | 10.56° C | 63% | 995 hPa | 0 mm | - | - | - |
| 1777726391 | 10.56° C | 61% | 995 hPa | 0 mm | - | - | - |
| 1777725191 | 12.78° C | 52% | 994 hPa | 0 mm | - | - | - |
| 1777723992 | 12.78° C | 50% | 994 hPa | 0 mm | - | - | - |
| 1777722790 | 11.67° C | 53% | 994 hPa | 0 mm | - | - | - |
| 1777721591 | 12.78° C | 50% | 995 hPa | 0 mm | - | - | - |
| 1777720391 | 13.89° C | 48% | 994 hPa | 0 mm | - | - | - |
| 1777719192 | 12.78° C | 49% | 995 hPa | 0 mm | - | - | - |
| 1777717991 | 12.78° C | 50% | 995 hPa | 0 mm | - | - | - |
| 1777716791 | 12.78° C | 50% | 996 hPa | 0 mm | - | - | - |
| 1777715591 | 12.78° C | 52% | 996 hPa | 0 mm | - | - | - |
| 1777714390 | 12.78° C | 53% | 996 hPa | 0 mm | - | - | - |
| 1777713191 | 12.78° C | 53% | 996 hPa | 0 mm | - | - | - |
| 1777711990 | 11.67° C | 47% | 996 hPa | 0 mm | - | - | - |
| 1777710791 | 11.67° C | 50% | 996 hPa | 0 mm | - | - | - |
| 1777709590 | 11.67° C | 49% | 996 hPa | 0 mm | - | - | - |
| 1777708391 | 13.89° C | 46% | 996 hPa | 0 mm | - | - | - |
| 1777707191 | 13.89° C | 48% | 996 hPa | 0 mm | - | - | - |
| 1777705991 | 13.89° C | 52% | 996 hPa | 0 mm | - | - | - |
| 1777704791 | 12.78° C | 52% | 996 hPa | 0 mm | - | - | - |
| 1777703592 | 11.67° C | 58% | 996 hPa | 0 mm | - | - | - |
| 1777702391 | 10° C | 61% | 996 hPa | 0 mm | - | - | - |
| 1777701191 | 8.89° C | 59% | 996 hPa | 0 mm | - | - | - |
* Rain latest hour (hover to see other rain measurements)
** Current wind speed in m/s (hover to see current wind gust speed)